Time;durP1;ratioP1;P1;durP2;ratioP2;P2;SDS_P1;SDS_P2;PMS_P1;PMS_P2;Temp;Humidity;BMP_temperature;BMP_pressure;BME280_temperature;BME280_humidity;BME280_pressure;Samples;Min_cycle;Max_cycle;Signal;HPM_P1;HPM_P2
2021/12/11 00:00:19;;;;;;;10.18;4.95;;;3.00;97.50;;;;;;5073906;28;20482;-79
2021/12/11 00:02:53;;;;;;;10.43;4.95;;;3.00;97.60;;;;;;5056657;28;20166;-79
2021/12/11 00:05:19;;;;;;;9.90;5.15;;;3.00;97.60;;;;;;5075268;28;20104;-79
2021/12/11 00:07:45;;;;;;;12.57;5.97;;;3.00;97.60;;;;;;5074454;28;20098;-79
2021/12/11 00:10:17;;;;;;;9.63;6.10;;;2.90;97.60;;;;;;5074953;28;20028;-77
2021/12/11 00:12:45;;;;;;;;;;;2.90;97.60;;;;;;5057281;28;20048;-78
2021/12/11 00:15:16;;;;;;;8.30;4.18;;;2.90;97.60;;;;;;5075549;28;19950;-77
2021/12/11 00:17:43;;;;;;;7.72;4.03;;;2.90;97.50;;;;;;5057548;28;20027;-77
2021/12/11 00:20:17;;;;;;;8.98;4.90;;;2.80;97.50;;;;;;5057631;28;20227;-77
2021/12/11 00:22:45;;;;;;;7.45;4.38;;;2.80;97.50;;;;;;5075750;28;20050;-78
2021/12/11 00:25:12;;;;;;;8.52;5.03;;;2.80;97.60;;;;;;5059750;28;20413;-77
2021/12/11 00:27:43;;;;;;;10.40;4.78;;;2.80;97.60;;;;;;5056517;28;20025;-77
2021/12/11 00:30:18;;;;;;;9.70;5.57;;;2.80;97.60;;;;;;5074703;28;20480;-77
2021/12/11 00:32:44;;;;;;;13.00;5.50;;;2.80;97.60;;;;;;5056216;28;20300;-77
2021/12/11 00:35:15;;;;;;;9.13;4.82;;;2.80;97.60;;;;;;5055899;28;20060;-77
2021/12/11 00:37:40;;;;;;;9.48;4.80;;;2.80;97.60;;;;;;5073855;28;20063;-78
2021/12/11 00:40:17;;;;;;;10.00;5.45;;;2.70;97.60;;;;;;5074349;28;20060;-77
2021/12/11 00:42:52;;;;;;;10.93;5.32;;;2.70;97.60;;;;;;5074052;28;20112;-78
2021/12/11 00:45:24;;;;;;;12.90;5.78;;;2.70;97.60;;;;;;5056003;28;20092;-77
2021/12/11 00:48:02;;;;;;;11.23;6.25;;;2.70;97.60;;;;;;5073458;28;20381;-78
2021/12/11 00:50:41;;;;;;;12.02;6.03;;;2.70;97.60;;;;;;5056122;28;20021;-77
2021/12/11 00:53:18;;;;;;;10.20;5.72;;;2.70;97.60;;;;;;5074079;28;20028;-77
2021/12/11 00:55:47;;;;;;;14.25;5.88;;;2.60;97.60;;;;;;5055460;28;20488;-78
2021/12/11 00:58:17;;;;;;;12.18;6.40;;;2.70;97.60;;;;;;5073968;28;20429;-77
2021/12/11 01:01:04;;;;;;;12.68;5.50;;;2.70;97.70;;;;;;5073691;28;20017;-78
2021/12/11 01:03:35;;;;;;;12.13;6.57;;;2.70;97.70;;;;;;5055442;28;20039;-78
2021/12/11 01:06:09;;;;;;;12.60;6.25;;;2.70;97.70;;;;;;5055671;28;20036;-77
2021/12/11 01:08:39;;;;;;;11.50;5.88;;;2.70;97.60;;;;;;5073603;28;20020;-77
2021/12/11 01:11:29;;;;;;;11.10;6.13;;;2.70;97.70;;;;;;5073818;28;20025;-78
2021/12/11 01:13:55;;;;;;;10.77;6.13;;;2.70;97.60;;;;;;5073268;28;20234;-77
2021/12/11 01:16:22;;;;;;;9.35;5.40;;;2.70;97.60;;;;;;5055679;28;20031;-77
2021/12/11 01:18:57;;;;;;;12.25;6.10;;;2.80;97.60;;;;;;5073052;28;20017;-78
2021/12/11 01:21:44;;;;;;;11.68;6.53;;;2.80;97.60;;;;;;5055857;28;20020;-77
2021/12/11 01:25:03;;;;;;;11.70;5.20;;;2.80;97.60;;;;;;5055701;28;20094;-77
2021/12/11 01:27:04;;;;;;;10.20;5.93;;;2.80;97.60;;;;;;5059265;28;20029;-78
2021/12/11 01:29:32;;;;;;;11.23;5.97;;;2.90;97.60;;;;;;5073501;28;20094;-78
2021/12/11 01:31:59;;;;;;;10.63;5.93;;;2.90;97.60;;;;;;5073046;28;20025;-78
2021/12/11 01:34:27;;;;;;;9.43;5.22;;;2.90;97.50;;;;;;5073373;28;20056;-78
2021/12/11 01:36:54;;;;;;;9.65;5.65;;;2.90;97.50;;;;;;5072948;28;20031;-78
2021/12/11 01:39:25;;;;;;;10.65;5.57;;;2.90;97.50;;;;;;5073207;28;20132;-78
2021/12/11 01:41:55;;;;;;;12.70;6.53;;;2.90;97.50;;;;;;5055228;28;20373;-79
2021/12/11 01:44:31;;;;;;;14.73;6.22;;;3.00;97.50;;;;;;5072866;28;20485;-78
2021/12/11 01:47:09;;;;;;;10.65;5.80;;;3.00;97.50;;;;;;5071320;28;20020;-79
2021/12/11 01:49:37;;;;;;;12.45;6.88;;;3.00;97.50;;;;;;5072841;28;20025;-78
2021/12/11 01:52:34;;;;;;;13.60;6.95;;;3.00;97.50;;;;;;5057324;28;20408;-78
2021/12/11 01:55:04;;;;;;;15.07;6.15;;;2.90;97.50;;;;;;5076995;28;20035;-78
2021/12/11 01:57:31;;;;;;;8.90;5.78;;;3.00;97.50;;;;;;5078752;28;20441;-78
2021/12/11 02:00:04;;;;;;;13.73;6.53;;;3.00;97.60;;;;;;5059780;28;20081;-78
2021/12/11 02:02:35;;;;;;;12.73;6.97;;;3.00;97.50;;;;;;5055149;28;20361;-79
2021/12/11 02:05:01;;;;;;;10.87;6.17;;;3.00;97.60;;;;;;5072701;28;20024;-79
2021/12/11 02:07:39;;;;;;;9.73;5.82;;;2.90;97.60;;;;;;5072928;28;20290;-78
2021/12/11 02:10:12;;;;;;;15.02;5.65;;;2.90;97.60;;;;;;5055044;28;20043;-79
2021/12/11 02:12:43;;;;;;;11.35;6.03;;;2.90;97.60;;;;;;5073267;28;20028;-79
2021/12/11 02:15:14;;;;;;;11.45;5.82;;;2.90;97.60;;;;;;5054899;28;20032;-78
2021/12/11 02:17:56;;;;;;;13.10;6.28;;;2.90;97.60;;;;;;5072886;28;20054;-79
2021/12/11 02:20:31;;;;;;;12.13;6.05;;;2.90;97.70;;;;;;5054595;28;20029;-78
2021/12/11 02:22:57;;;;;;;12.65;6.20;;;2.90;97.60;;;;;;5054351;28;20032;-77
2021/12/11 02:25:32;;;;;;;13.13;6.25;;;2.90;97.70;;;;;;5054857;28;20039;-77
2021/12/11 02:28:08;;;;;;;10.38;6.20;;;2.90;97.70;;;;;;5054345;28;20048;-77
2021/12/11 02:30:45;;;;;;;9.30;5.78;;;2.80;97.70;;;;;;5055498;28;20021;-77
2021/12/11 02:33:22;;;;;;;12.80;6.15;;;2.80;97.70;;;;;;5073548;28;20039;-77
2021/12/11 02:35:56;;;;;;;9.93;6.20;;;2.80;97.70;;;;;;5054628;28;20020;-77
2021/12/11 02:38:34;;;;;;;11.10;6.22;;;2.80;97.70;;;;;;5058354;28;20096;-79
2021/12/11 02:41:12;;;;;;;11.88;6.32;;;2.80;97.70;;;;;;5073428;28;20074;-78
2021/12/11 02:43:53;;;;;;;10.95;5.97;;;2.80;97.70;;;;;;5072543;28;20033;-77
2021/12/11 02:46:32;;;;;;;11.48;6.22;;;2.80;97.70;;;;;;5072425;28;20084;-77
2021/12/11 02:49:10;;;;;;;9.68;5.85;;;2.80;97.70;;;;;;5053959;28;20052;-77
2021/12/11 02:51:39;;;;;;;12.20;6.28;;;2.80;97.80;;;;;;5072463;28;20075;-77
2021/12/11 02:54:12;;;;;;;11.88;5.88;;;2.70;97.70;;;;;;5071690;28;20059;-78
2021/12/11 02:56:45;;;;;;;13.10;6.68;;;2.80;97.80;;;;;;5071984;28;20120;-77
2021/12/11 02:59:21;;;;;;;10.88;6.03;;;2.70;97.80;;;;;;5073443;28;20035;-77
2021/12/11 03:02:05;;;;;;;12.95;6.93;;;2.70;97.80;;;;;;5075704;28;20411;-78
2021/12/11 03:04:37;;;;;;;11.13;5.63;;;2.70;97.80;;;;;;5076366;28;20128;-78
2021/12/11 03:07:08;;;;;;;10.82;6.30;;;2.70;97.80;;;;;;5075919;28;20272;-77
2021/12/11 03:09:38;;;;;;;12.18;5.38;;;2.70;97.80;;;;;;5076526;28;20025;-77
2021/12/11 03:12:07;;;;;;;10.38;5.85;;;2.70;97.80;;;;;;5075875;28;20484;-77
2021/12/11 03:14:33;;;;;;;10.68;5.93;;;2.70;97.80;;;;;;5076187;28;20544;-77
2021/12/11 03:17:01;;;;;;;11.20;5.70;;;2.70;98.10;;;;;;5057797;28;20013;-77
2021/12/11 03:19:29;;;;;;;9.75;5.55;;;2.70;97.80;;;;;;5075746;28;20480;-78
2021/12/11 03:21:56;;;;;;;14.05;6.40;;;2.70;97.80;;;;;;5075574;28;20469;-78
2021/12/11 03:24:23;;;;;;;11.65;6.53;;;2.70;97.80;;;;;;5075557;28;20043;-78
2021/12/11 03:26:51;;;;;;;9.32;6.00;;;2.70;97.80;;;;;;5057446;28;20025;-78
2021/12/11 03:29:18;;;;;;;14.63;7.07;;;2.70;98.00;;;;;;5075717;28;20027;-78
2021/12/11 03:31:44;;;;;;;11.52;6.43;;;2.80;97.70;;;;;;5075306;28;20021;-77
2021/12/11 03:34:15;;;;;;;13.00;7.35;;;2.80;97.70;;;;;;5075045;28;20603;-77
2021/12/11 03:36:41;;;;;;;11.13;5.75;;;2.80;97.70;;;;;;5075644;28;20033;-78
2021/12/11 03:39:15;;;;;;;12.30;5.80;;;2.90;97.70;;;;;;5075345;28;20027;-77
2021/12/11 03:41:43;;;;;;;12.27;6.25;;;2.90;97.70;;;;;;5057552;28;20511;-77
2021/12/11 03:44:09;;;;;;;11.43;6.75;;;2.90;97.60;;;;;;5075156;28;20033;-77
2021/12/11 03:46:36;;;;;;;12.10;5.80;;;2.80;97.60;;;;;;5075391;28;20499;-77
2021/12/11 03:49:11;;;;;;;9.45;5.57;;;2.80;97.60;;;;;;5075176;28;20066;-78
2021/12/11 03:51:39;;;;;;;11.15;6.55;;;2.80;97.70;;;;;;5075581;28;20024;-78
2021/12/11 03:54:08;;;;;;;10.13;6.25;;;2.80;97.70;;;;;;5074898;28;20103;-76
2021/12/11 03:56:36;;;;;;;12.20;6.30;;;2.80;97.70;;;;;;5057166;28;20029;-77
2021/12/11 03:59:08;;;;;;;11.23;5.53;;;2.70;97.70;;;;;;5074768;28;20021;-77
2021/12/11 04:01:37;;;;;;;17.90;6.60;;;2.70;97.80;;;;;;5057237;28;20209;-77
2021/12/11 04:04:28;;;;;;;13.27;6.03;;;2.70;97.80;;;;;;5056579;28;20037;-78
2021/12/11 04:06:57;;;;;;;10.68;5.88;;;2.60;97.90;;;;;;5067307;28;20063;-78
2021/12/11 04:09:24;;;;;;;11.18;5.97;;;2.60;97.90;;;;;;5057209;28;20237;-77
2021/12/11 04:11:51;;;;;;;11.70;6.53;;;2.60;97.90;;;;;;5074226;28;20105;-78
2021/12/11 04:14:21;;;;;;;11.25;6.25;;;2.50;97.90;;;;;;5074954;28;20461;-77
2021/12/11 04:16:47;;;;;;;11.25;5.95;;;2.50;97.90;;;;;;5075266;28;20020;-77
2021/12/11 04:19:13;;;;;;;10.32;5.63;;;2.60;98.00;;;;;;5074691;28;20509;-77
2021/12/11 04:21:40;;;;;;;16.80;6.97;;;2.50;97.90;;;;;;5074946;28;20047;-76
2021/12/11 04:24:08;;;;;;;14.82;6.95;;;2.50;97.90;;;;;;5074424;28;20064;-77
2021/12/11 04:26:35;;;;;;;10.85;5.72;;;2.50;97.90;;;;;;5074899;28;20031;-77
2021/12/11 04:29:01;;;;;;;9.55;6.25;;;2.50;97.90;;;;;;5074301;28;20032;-77
2021/12/11 04:31:29;;;;;;;11.50;5.78;;;2.50;97.90;;;;;;5056592;28;20070;-77
2021/12/11 04:33:59;;;;;;;10.20;6.20;;;2.50;97.90;;;;;;5056343;28;20020;-77
2021/12/11 04:36:33;;;;;;;11.88;5.82;;;2.60;97.90;;;;;;5074819;28;20024;-77
2021/12/11 04:39:00;;;;;;;12.32;6.35;;;2.60;97.80;;;;;;5074358;28;20024;-78
2021/12/11 04:41:36;;;;;;;12.60;7.40;;;2.70;97.80;;;;;;5056595;28;20021;-77
2021/12/11 04:44:08;;;;;;;10.68;6.30;;;2.70;97.70;;;;;;5074143;28;20115;-77
2021/12/11 04:46:34;;;;;;;10.55;6.15;;;2.80;97.70;;;;;;5056557;28;20074;-78
2021/12/11 04:49:10;;;;;;;9.18;6.40;;;2.80;97.60;;;;;;5075140;28;20028;-78
2021/12/11 04:54:33;;;;;;;11.00;6.18;;;2.90;97.60;;;;;;5080927;28;20037;-77
2021/12/11 04:57:23;;;;;;;11.70;6.38;;;2.90;97.60;;;;;;5074200;28;20118;-77
2021/12/11 05:03:24;;;;;;;10.40;6.65;;;3.00;97.40;;;;;;5074126;28;20401;-78
2021/12/11 05:05:43;;;;;;;11.18;6.35;;;3.00;97.40;;;;;;5055731;28;20473;-79
2021/12/11 05:10:59;;;;;;;13.40;6.57;;;3.20;97.30;;;;;;5074239;28;20028;-78
2021/12/11 05:13:28;;;;;;;13.85;7.63;;;3.20;97.20;;;;;;5074206;28;20028;-78
2021/12/11 05:15:57;;;;;;;13.95;6.38;;;3.20;97.20;;;;;;5055745;28;20020;-78
2021/12/11 05:18:27;;;;;;;12.93;6.03;;;3.30;97.20;;;;;;5056342;28;20017;-78
2021/12/11 05:20:57;;;;;;;12.13;6.82;;;3.30;97.20;;;;;;5055958;28;20388;-78
2021/12/11 05:23:23;;;;;;;12.52;6.60;;;3.30;97.30;;;;;;5073426;28;20025;-78
2021/12/11 05:25:49;;;;;;;10.45;5.93;;;3.40;97.30;;;;;;5073917;28;20024;-78
2021/12/11 05:28:15;;;;;;;14.15;6.88;;;3.40;97.30;;;;;;5073494;28;20028;-78
2021/12/11 05:30:45;;;;;;;13.65;6.95;;;3.40;97.30;;;;;;5068697;28;20423;-78
2021/12/11 05:33:11;;;;;;;14.90;7.17;;;3.40;97.30;;;;;;5035185;28;20032;-78
2021/12/11 05:35:39;;;;;;;14.57;7.25;;;3.40;97.30;;;;;;5051407;28;20354;-78
2021/12/11 05:38:08;;;;;;;16.58;7.82;;;3.40;97.30;;;;;;5035342;28;20453;-78
2021/12/11 05:40:37;;;;;;;12.45;7.55;;;3.40;97.30;;;;;;5053769;28;20013;-78
2021/12/11 05:43:05;;;;;;;14.23;7.95;;;3.40;97.30;;;;;;5052911;28;20021;-78
2021/12/11 05:45:31;;;;;;;12.13;6.43;;;3.50;97.30;;;;;;5053533;28;20052;-78
2021/12/11 05:48:00;;;;;;;15.32;7.45;;;3.50;97.30;;;;;;5035142;28;20017;-78
2021/12/11 05:50:32;;;;;;;13.65;6.40;;;3.50;97.20;;;;;;5053720;28;20025;-78
2021/12/11 05:52:57;;;;;;;13.77;7.40;;;3.60;97.20;;;;;;5053049;28;20071;-78
2021/12/11 05:55:25;;;;;;;13.18;6.78;;;3.60;97.20;;;;;;5053909;28;20021;-78
2021/12/11 05:57:57;;;;;;;15.73;6.75;;;3.60;97.10;;;;;;5053149;28;20036;-78
2021/12/11 06:00:30;;;;;;;13.65;7.28;;;3.60;97.10;;;;;;5068171;28;20107;-78
2021/12/11 06:02:56;;;;;;;12.20;6.45;;;3.60;97.10;;;;;;5052805;28;20032;-79
2021/12/11 06:05:22;;;;;;;11.88;6.43;;;3.60;97.10;;;;;;5053199;28;20484;-79
2021/12/11 06:07:48;;;;;;;13.95;6.57;;;3.60;97.10;;;;;;5035096;28;20049;-78
2021/12/11 06:10:17;;;;;;;14.73;6.85;;;3.60;97.00;;;;;;5051267;28;20021;-79
2021/12/11 06:12:45;;;;;;;13.20;7.07;;;3.60;97.00;;;;;;5052919;28;20028;-78
2021/12/11 06:15:11;;;;;;;15.20;8.20;;;3.60;97.00;;;;;;5052212;28;20035;-79
2021/12/11 06:17:38;;;;;;;17.80;7.63;;;3.60;97.00;;;;;;5034639;28;20021;-79
2021/12/11 06:20:06;;;;;;;16.15;7.63;;;3.60;97.00;;;;;;5052323;28;20523;-80
2021/12/11 06:22:35;;;;;;;14.90;7.88;;;3.60;97.00;;;;;;5052703;28;20024;-78
2021/12/11 06:25:07;;;;;;;14.68;7.68;;;3.60;97.00;;;;;;5050977;28;20465;-79
2021/12/11 06:27:33;;;;;;;14.60;8.15;;;3.70;97.00;;;;;;5068052;28;20382;-78
2021/12/11 06:29:59;;;;;;;13.13;7.30;;;3.70;97.00;;;;;;5052186;28;20488;-79
2021/12/11 06:32:25;;;;;;;14.10;7.35;;;3.70;97.10;;;;;;5051315;28;20016;-78
2021/12/11 06:34:56;;;;;;;16.00;7.22;;;3.70;97.10;;;;;;5050004;28;20031;-78
2021/12/11 06:37:22;;;;;;;13.95;8.25;;;3.60;97.10;;;;;;5067505;28;20067;-78
2021/12/11 06:39:51;;;;;;;15.65;8.40;;;3.70;97.10;;;;;;5067901;28;20021;-78
2021/12/11 06:42:19;;;;;;;14.15;6.57;;;3.60;97.10;;;;;;5051960;28;20021;-80
2021/12/11 06:44:46;;;;;;;17.63;8.48;;;3.60;97.10;;;;;;5052195;28;20371;-78
2021/12/11 06:47:14;;;;;;;14.65;7.30;;;3.70;97.10;;;;;;5051052;28;20186;-79
2021/12/11 06:49:41;;;;;;;14.00;7.80;;;3.70;97.10;;;;;;5051255;28;20513;-78
2021/12/11 06:52:12;;;;;;;14.65;8.00;;;3.70;97.20;;;;;;5052040;28;20025;-79
2021/12/11 06:54:38;;;;;;;13.70;7.22;;;3.70;97.20;;;;;;5052695;28;20057;-79
2021/12/11 06:57:04;;;;;;;17.50;7.20;;;3.70;97.20;;;;;;5050699;28;20490;-78
2021/12/11 06:59:30;;;;;;;15.02;6.95;;;3.70;97.20;;;;;;5086747;28;20135;-79
2021/12/11 07:01:56;;;;;;;15.02;7.22;;;3.70;97.20;;;;;;5092334;28;20436;-79
2021/12/11 07:04:22;;;;;;;15.18;7.65;;;3.70;97.20;;;;;;5074291;28;20028;-79
2021/12/11 07:06:53;;;;;;;12.10;6.72;;;3.70;97.20;;;;;;5075399;28;20040;-79
2021/12/11 07:09:21;;;;;;;16.38;7.82;;;3.70;97.20;;;;;;5070503;28;20074;-79
2021/12/11 07:11:48;;;;;;;11.32;6.40;;;3.70;97.20;;;;;;5051748;28;20112;-79
2021/12/11 07:14:16;;;;;;;15.52;7.32;;;3.70;97.20;;;;;;5050421;28;20052;-79
2021/12/11 07:16:43;;;;;;;14.45;7.97;;;3.70;97.20;;;;;;5048708;28;20025;-79
2021/12/11 07:19:10;;;;;;;16.70;7.78;;;3.70;97.20;;;;;;5049466;28;20055;-79
2021/12/11 07:21:38;;;;;;;14.15;7.15;;;3.70;97.20;;;;;;5051510;28;20075;-79
2021/12/11 07:24:06;;;;;;;15.07;7.15;;;3.70;97.30;;;;;;5050759;28;20025;-79
2021/12/11 07:26:34;;;;;;;12.20;6.65;;;3.70;97.30;;;;;;5051739;28;20029;-79
2021/12/11 07:29:07;;;;;;;14.45;7.90;;;3.80;97.30;;;;;;5051761;28;20028;-79
2021/12/11 07:31:33;;;;;;;12.77;7.28;;;3.80;97.30;;;;;;5051525;28;20121;-79
2021/12/11 07:33:59;;;;;;;14.93;8.73;;;3.80;97.30;;;;;;5051449;28;20029;-80
2021/12/11 07:36:26;;;;;;;16.17;7.88;;;3.80;97.30;;;;;;5051115;28;20036;-79
2021/12/11 07:38:53;;;;;;;13.68;7.47;;;3.80;97.30;;;;;;5051518;28;20017;-79
2021/12/11 07:41:22;;;;;;;19.20;8.23;;;3.80;97.30;;;;;;5051327;28;20121;-79
2021/12/11 07:43:49;;;;;;;13.68;7.68;;;3.80;97.30;;;;;;5051195;28;20064;-79
2021/12/11 07:46:18;;;;;;;14.90;8.52;;;3.90;97.40;;;;;;5053726;28;20028;-79
2021/12/11 07:48:46;;;;;;;15.07;7.43;;;3.90;97.30;;;;;;5055075;28;20048;-79
2021/12/11 07:51:12;;;;;;;15.43;7.47;;;3.90;97.30;;;;;;5054701;28;20036;-79
2021/12/11 07:53:38;;;;;;;16.98;8.15;;;3.90;97.30;;;;;;5054893;28;20489;-78
2021/12/11 07:56:04;;;;;;;15.90;7.72;;;3.90;97.30;;;;;;5053426;28;20098;-79
2021/12/11 07:58:32;;;;;;;15.90;8.38;;;3.90;97.30;;;;;;5055003;28;20366;-78
2021/12/11 08:00:58;;;;;;;14.00;7.30;;;3.90;97.30;;;;;;5055023;28;20090;-78
2021/12/11 08:03:25;;;;;;;15.75;6.70;;;3.90;97.40;;;;;;5054370;28;20295;-79
2021/12/11 08:05:52;;;;;;;13.73;6.70;;;3.90;97.40;;;;;;5054843;28;20527;-78
2021/12/11 08:08:19;;;;;;;18.00;8.27;;;3.80;97.50;;;;;;5072752;28;20045;-78
2021/12/11 08:10:47;;;;;;;18.58;9.48;;;3.90;97.60;;;;;;5074884;28;20169;-79
2021/12/11 08:13:14;;;;;;;13.25;7.65;;;3.90;97.60;;;;;;5072808;28;20488;-79
2021/12/11 08:15:41;;;;;;;16.92;7.55;;;3.90;97.60;;;;;;5074534;28;20028;-79
2021/12/11 08:18:10;;;;;;;13.95;6.78;;;3.90;97.60;;;;;;5074343;28;20078;-78
2021/12/11 08:20:38;;;;;;;14.30;7.47;;;3.90;97.60;;;;;;5073067;28;20453;-78
2021/12/11 08:23:04;;;;;;;16.38;7.65;;;4.00;97.50;;;;;;5074414;28;20056;-79
2021/12/11 08:25:31;;;;;;;16.20;7.60;;;4.00;97.50;;;;;;5073988;28;20495;-78
2021/12/11 08:27:58;;;;;;;14.90;7.43;;;4.00;97.50;;;;;;5074241;28;20025;-78
2021/12/11 08:30:27;;;;;;;17.15;7.53;;;4.00;97.60;;;;;;5073936;28;20372;-78
2021/12/11 08:32:53;;;;;;;12.73;6.97;;;4.10;97.60;;;;;;5073800;28;20108;-79
2021/12/11 08:35:19;;;;;;;14.93;7.32;;;4.00;97.50;;;;;;5072694;28;20444;-78
2021/12/11 08:37:49;;;;;;;16.73;8.13;;;4.10;97.50;;;;;;5074383;28;20455;-78
2021/12/11 08:40:20;;;;;;;13.00;6.93;;;4.10;97.50;;;;;;5074155;28;20115;-78
2021/12/11 08:42:47;;;;;;;17.05;7.85;;;4.10;97.50;;;;;;5074277;28;20387;-78
2021/12/11 08:45:21;;;;;;;15.40;7.10;;;4.20;97.50;;;;;;5072595;28;20029;-79
2021/12/11 08:47:48;;;;;;;16.50;7.20;;;4.20;97.50;;;;;;5073031;28;20016;-75
2021/12/11 08:50:18;;;;;;;14.45;7.28;;;4.20;97.50;;;;;;5073749;28;20024;-75
2021/12/11 08:52:49;;;;;;;16.23;8.25;;;4.20;97.50;;;;;;5072749;28;20024;-76
2021/12/11 08:55:23;;;;;;;15.57;7.78;;;4.20;97.50;;;;;;5072123;28;20426;-75
2021/12/11 08:57:49;;;;;;;13.93;7.38;;;4.30;97.60;;;;;;5073027;28;20020;-75
2021/12/11 09:00:25;;;;;;;13.50;6.78;;;4.20;97.60;;;;;;5072182;28;20052;-74
2021/12/11 09:02:57;;;;;;;13.23;6.85;;;4.30;97.60;;;;;;5072616;28;20422;-74
2021/12/11 09:05:38;;;;;;;14.23;7.20;;;4.30;97.60;;;;;;5073408;28;20029;-74
2021/12/11 09:08:12;;;;;;;14.27;7.27;;;4.40;97.50;;;;;;5071979;28;20048;-74
2021/12/11 09:11:05;;;;;;;15.02;7.20;;;4.40;97.50;;;;;;5072315;28;20043;-74
2021/12/11 09:13:45;;;;;;;16.98;7.80;;;4.40;97.40;;;;;;5072136;28;20028;-74
2021/12/11 09:16:20;;;;;;;15.52;7.70;;;4.40;97.50;;;;;;5056306;28;20024;-74
2021/12/11 09:19:15;;;;;;;15.10;8.05;;;4.30;97.50;;;;;;5053292;28;20029;-73
2021/12/11 09:21:51;;;;;;;12.90;6.50;;;4.30;97.60;;;;;;5046908;28;20094;-73
2021/12/11 09:24:27;;;;;;;16.58;7.85;;;4.20;97.70;;;;;;5031941;28;20040;-74
2021/12/11 09:27:02;;;;;;;15.48;7.68;;;4.20;97.80;;;;;;5048959;28;20028;-73
2021/12/11 09:29:37;;;;;;;12.18;7.05;;;4.30;97.80;;;;;;5047788;28;20133;-74
2021/12/11 09:32:35;;;;;;;13.55;7.57;;;4.30;98.10;;;;;;5032238;28;20018;-73
2021/12/11 09:35:04;;;;;;;12.55;6.90;;;4.40;97.80;;;;;;5031163;28;20112;-74
2021/12/11 09:37:31;;;;;;;12.43;7.10;;;4.50;97.80;;;;;;5031423;28;20049;-74
2021/12/11 09:40:09;;;;;;;20.75;8.43;;;4.50;97.70;;;;;;5031918;28;20026;-74
2021/12/11 09:42:34;;;;;;;18.77;8.35;;;4.60;97.70;;;;;;5032481;28;20021;-73
2021/12/11 09:45:09;;;;;;;15.90;8.43;;;4.70;97.70;;;;;;5031647;28;20040;-73
2021/12/11 09:47:41;;;;;;;15.32;7.78;;;4.70;97.70;;;;;;5032707;28;20037;-73
2021/12/11 09:50:16;;;;;;;;;;;4.80;97.70;;;;;;5033485;28;20403;-74
2021/12/11 09:52:46;;;;;;;15.27;7.15;;;4.80;97.50;;;;;;5031657;28;19905;-74
2021/12/11 09:55:21;;;;;;;16.85;7.75;;;4.90;97.40;;;;;;5031867;28;20412;-74
2021/12/11 09:57:54;;;;;;;15.68;7.65;;;4.90;97.40;;;;;;5033014;28;20022;-74
2021/12/11 10:00:39;;;;;;;17.30;7.95;;;5.00;97.40;;;;;;5032519;28;20022;-74
2021/12/11 10:03:08;;;;;;;19.05;8.18;;;5.00;97.30;;;;;;5032750;28;20028;-75
2021/12/11 10:05:43;;;;;;;14.43;7.05;;;5.10;97.30;;;;;;5030935;28;20247;-75
2021/12/11 10:08:31;;;;;;;17.30;8.60;;;5.10;97.30;;;;;;5028639;28;20060;-75
2021/12/11 10:11:05;;;;;;;18.73;8.10;;;5.10;97.40;;;;;;5064682;28;20029;-74
2021/12/11 10:13:34;;;;;;;17.75;8.60;;;5.10;97.40;;;;;;5032142;28;20033;-75
2021/12/11 10:16:02;;;;;;;20.20;8.50;;;5.10;97.40;;;;;;5031290;28;20413;-74
2021/12/11 10:18:31;;;;;;;18.02;9.52;;;5.20;97.40;;;;;;5032083;28;20029;-74
2021/12/11 10:21:08;;;;;;;19.52;9.13;;;5.10;97.40;;;;;;5032278;28;20470;-74
2021/12/11 10:23:36;;;;;;;18.98;9.18;;;5.10;97.50;;;;;;5063478;28;20084;-74
2021/12/11 10:26:09;;;;;;;20.42;9.13;;;5.20;97.50;;;;;;5032114;28;20031;-75
2021/12/11 10:28:37;;;;;;;17.95;10.30;;;5.20;97.40;;;;;;5032039;28;20172;-75
2021/12/11 10:31:36;;;;;;;22.27;8.73;;;5.30;97.40;;;;;;5032820;28;20018;-74
2021/12/11 10:34:06;;;;;;;16.45;8.70;;;5.30;97.40;;;;;;5020064;28;20088;-74
2021/12/11 10:36:35;;;;;;;18.80;9.23;;;5.30;97.40;;;;;;5031869;28;20029;-75
2021/12/11 10:39:04;;;;;;;19.40;9.52;;;5.40;97.40;;;;;;5032444;28;20019;-74
2021/12/11 10:41:30;;;;;;;17.33;8.60;;;5.50;97.30;;;;;;5031598;28;20021;-75
2021/12/11 10:44:01;;;;;;;18.67;8.40;;;5.50;97.30;;;;;;5031932;28;20116;-75
2021/12/11 10:46:58;;;;;;;15.75;8.05;;;5.50;97.30;;;;;;5031548;28;20419;-75
2021/12/11 10:49:25;;;;;;;17.67;8.32;;;5.50;97.20;;;;;;5027009;28;20092;-75
2021/12/11 10:51:59;;;;;;;18.58;8.27;;;5.50;97.20;;;;;;5032145;28;20032;-74
2021/12/11 10:54:25;;;;;;;18.73;8.32;;;5.40;97.30;;;;;;5063265;28;20509;-74
2021/12/11 10:56:51;;;;;;;19.42;10.07;;;5.40;97.50;;;;;;5031785;28;20490;-75
2021/12/11 10:59:28;;;;;;;15.80;8.50;;;5.40;97.50;;;;;;5032027;28;20045;-75
2021/12/11 11:02:05;;;;;;;21.70;9.98;;;5.60;97.50;;;;;;5064216;28;20080;-76
2021/12/11 11:04:38;;;;;;;20.13;8.63;;;5.60;97.40;;;;;;5031281;28;20037;-76
2021/12/11 11:07:05;;;;;;;19.13;8.40;;;5.60;97.40;;;;;;5034381;28;20057;-75
2021/12/11 11:09:31;;;;;;;18.65;9.02;;;5.50;97.40;;;;;;5051785;28;20043;-76
2021/12/11 11:12:01;;;;;;;16.63;7.45;;;5.50;97.50;;;;;;5051588;28;20021;-74
2021/12/11 11:14:29;;;;;;;15.10;6.97;;;5.60;97.60;;;;;;5051377;28;20067;-74
2021/12/11 11:16:58;;;;;;;17.23;8.00;;;5.60;97.50;;;;;;5067108;28;20053;-74
2021/12/11 11:19:27;;;;;;;16.15;8.90;;;5.60;97.40;;;;;;5051005;28;20025;-74
2021/12/11 11:21:58;;;;;;;14.43;7.50;;;5.60;97.40;;;;;;5055788;28;20036;-74
2021/12/11 11:24:32;;;;;;;20.70;8.68;;;5.70;97.40;;;;;;5055344;28;20025;-75
2021/12/11 11:26:58;;;;;;;15.90;8.13;;;5.70;97.40;;;;;;5055680;28;20025;-75
2021/12/11 11:29:26;;;;;;;17.13;7.50;;;5.70;97.40;;;;;;5055515;28;20484;-75
2021/12/11 11:31:55;;;;;;;15.27;7.60;;;5.70;97.50;;;;;;5055677;28;20143;-75
2021/12/11 11:34:23;;;;;;;16.77;7.82;;;5.70;97.40;;;;;;5055052;28;20041;-75
2021/12/11 11:36:50;;;;;;;15.95;7.70;;;5.70;97.50;;;;;;5055267;28;20096;-75
2021/12/11 11:39:19;;;;;;;14.82;7.22;;;5.70;97.50;;;;;;5055309;28;20013;-75
2021/12/11 11:41:56;;;;;;;16.48;7.28;;;5.80;97.50;;;;;;5070134;28;20051;-75
2021/12/11 11:44:24;;;;;;;19.30;7.70;;;5.90;97.50;;;;;;5070300;28;20063;-75
2021/12/11 11:46:54;;;;;;;16.55;7.55;;;5.90;97.40;;;;;;5055405;28;20024;-75
2021/12/11 11:49:20;;;;;;;18.00;7.55;;;5.90;97.30;;;;;;5054988;28;20108;-75
2021/12/11 11:51:51;;;;;;;13.25;6.43;;;5.90;97.30;;;;;;5070519;28;20021;-75
2021/12/11 11:54:18;;;;;;;15.55;7.15;;;5.90;97.40;;;;;;5055226;28;20064;-75
2021/12/11 11:56:59;;;;;;;14.15;6.38;;;5.90;97.40;;;;;;5054590;28;20025;-75
2021/12/11 11:59:25;;;;;;;14.68;7.43;;;5.90;97.50;;;;;;5054531;28;20028;-75
2021/12/11 12:01:56;;;;;;;13.77;6.53;;;5.90;97.40;;;;;;5053727;28;20112;-73
2021/12/11 12:04:22;;;;;;;;;;;6.00;97.40;;;;;;5053789;28;20061;-73
2021/12/11 12:06:54;;;;;;;14.63;6.78;;;6.00;97.40;;;;;;5054573;28;20350;-74
2021/12/11 12:09:23;;;;;;;15.55;7.28;;;6.00;97.20;;;;;;5053464;28;20076;-74
2021/12/11 12:11:49;;;;;;;17.80;7.10;;;5.90;97.40;;;;;;5036747;28;20036;-74
2021/12/11 12:14:20;;;;;;;15.57;7.30;;;5.90;97.40;;;;;;5054936;28;20028;-74
2021/12/11 12:16:47;;;;;;;;;;;5.90;97.50;;;;;;5054856;28;20361;-74
2021/12/11 12:19:12;;;;;;;18.05;7.75;;;5.80;97.40;;;;;;5036653;28;19912;-75
2021/12/11 12:21:42;;;;;;;14.40;7.07;;;5.80;97.40;;;;;;5054206;28;20024;-75
2021/12/11 12:24:08;;;;;;;15.13;7.57;;;5.80;97.40;;;;;;5053262;28;20036;-75
2021/12/11 12:26:35;;;;;;;17.95;8.30;;;5.70;97.50;;;;;;5069376;28;20465;-75
2021/12/11 12:29:02;;;;;;;23.02;8.52;;;5.70;97.60;;;;;;5054588;28;20029;-75
2021/12/11 12:31:34;;;;;;;18.75;8.52;;;5.60;97.80;;;;;;5053787;28;20028;-74
2021/12/11 12:34:02;;;;;;;12.32;5.85;;;5.60;97.90;;;;;;5054504;28;20040;-74
2021/12/11 12:36:29;;;;;;;12.00;6.18;;;5.70;97.90;;;;;;5053983;28;20025;-74
2021/12/11 12:38:55;;;;;;;13.93;7.25;;;5.70;97.90;;;;;;5054697;28;20476;-74
2021/12/11 12:41:28;;;;;;;14.02;7.30;;;5.70;97.80;;;;;;5052881;28;20025;-74
2021/12/11 12:46:40;;;;;;;17.98;7.72;;;5.70;97.90;;;;;;5053844;28;20029;-74
2021/12/11 12:49:06;;;;;;;19.80;9.00;;;5.60;97.90;;;;;;5054164;28;20135;-74
2021/12/11 12:51:34;;;;;;;17.60;8.10;;;5.70;97.90;;;;;;5053794;28;20025;-74
2021/12/11 12:54:02;;;;;;;15.38;7.30;;;5.70;97.90;;;;;;5053961;28;20037;-74
2021/12/11 12:56:32;;;;;;;16.63;7.78;;;5.80;97.90;;;;;;5053334;28;20029;-74
2021/12/11 12:59:08;;;;;;;19.77;9.60;;;5.80;97.90;;;;;;5054253;28;20025;-74
2021/12/11 13:01:36;;;;;;;21.02;8.65;;;5.80;97.90;;;;;;5035599;28;20441;-74
2021/12/11 13:04:05;;;;;;;20.90;9.85;;;5.90;97.90;;;;;;5053766;28;20095;-74
2021/12/11 13:06:37;;;;;;;25.05;9.77;;;5.90;97.80;;;;;;5068518;28;20029;-75
2021/12/11 13:09:12;;;;;;;26.15;10.80;;;5.90;97.80;;;;;;5032560;28;20041;-74
2021/12/11 13:11:50;;;;;;;22.55;10.02;;;6.00;97.90;;;;;;5031835;28;20018;-74
2021/12/11 13:14:16;;;;;;;21.38;10.05;;;6.00;97.80;;;;;;5032424;28;20036;-74
2021/12/11 13:16:45;;;;;;;19.75;8.48;;;6.00;97.70;;;;;;5049236;28;20029;-75